sensor_id;sensor_type;location;lat;lon;timestamp;temperature;humidity
33594;DHT22;19920;52.242;20.940;2022-12-07T00:01:15;2.80;99.90
33594;DHT22;19920;52.242;20.940;2022-12-07T00:03:43;2.80;99.90
33594;DHT22;19920;52.242;20.940;2022-12-07T00:06:10;2.80;99.90
33594;DHT22;19920;52.242;20.940;2022-12-07T00:08:36;2.80;99.90
33594;DHT22;19920;52.242;20.940;2022-12-07T00:11:04;2.80;99.90
33594;DHT22;19920;52.242;20.940;2022-12-07T00:13:31;2.80;99.90
33594;DHT22;19920;52.242;20.940;2022-12-07T00:16:01;2.80;99.90
33594;DHT22;19920;52.242;20.940;2022-12-07T00:18:27;2.80;99.90
33594;DHT22;19920;52.242;20.940;2022-12-07T00:20:52;2.90;99.90
33594;DHT22;19920;52.242;20.940;2022-12-07T00:23:18;2.90;99.90
33594;DHT22;19920;52.242;20.940;2022-12-07T00:25:44;2.90;99.90
33594;DHT22;19920;52.242;20.940;2022-12-07T00:28:09;2.90;99.90
33594;DHT22;19920;52.242;20.940;2022-12-07T00:30:36;3.00;99.90
33594;DHT22;19920;52.242;20.940;2022-12-07T00:33:01;3.10;99.90
33594;DHT22;19920;52.242;20.940;2022-12-07T00:35:27;3.10;99.90
33594;DHT22;19920;52.242;20.940;2022-12-07T00:37:53;3.10;99.90
33594;DHT22;19920;52.242;20.940;2022-12-07T00:40:19;3.20;99.90
33594;DHT22;19920;52.242;20.940;2022-12-07T00:42:44;3.20;99.90
33594;DHT22;19920;52.242;20.940;2022-12-07T00:45:10;3.20;99.90
33594;DHT22;19920;52.242;20.940;2022-12-07T00:47:35;3.20;99.90
33594;DHT22;19920;52.242;20.940;2022-12-07T00:50:01;3.20;99.90
33594;DHT22;19920;52.242;20.940;2022-12-07T00:52:27;3.20;99.90
33594;DHT22;19920;52.242;20.940;2022-12-07T00:54:52;3.20;99.90
33594;DHT22;19920;52.242;20.940;2022-12-07T00:57:18;3.20;99.90
33594;DHT22;19920;52.242;20.940;2022-12-07T00:59:44;3.10;99.90
33594;DHT22;19920;52.242;20.940;2022-12-07T01:02:09;3.20;99.90
33594;DHT22;19920;52.242;20.940;2022-12-07T01:04:35;3.10;99.90
33594;DHT22;19920;52.242;20.940;2022-12-07T01:07:00;3.10;99.90
33594;DHT22;19920;52.242;20.940;2022-12-07T01:09:26;3.00;99.90
33594;DHT22;19920;52.242;20.940;2022-12-07T01:11:52;3.00;99.90
33594;DHT22;19920;52.242;20.940;2022-12-07T01:14:17;3.00;99.90
33594;DHT22;19920;52.242;20.940;2022-12-07T01:16:43;2.90;99.90
33594;DHT22;19920;52.242;20.940;2022-12-07T01:19:09;2.90;99.90
33594;DHT22;19920;52.242;20.940;2022-12-07T01:21:35;2.90;99.90
33594;DHT22;19920;52.242;20.940;2022-12-07T01:24:04;2.80;99.90
33594;DHT22;19920;52.242;20.940;2022-12-07T01:26:30;2.80;99.90
33594;DHT22;19920;52.242;20.940;2022-12-07T01:28:56;2.80;99.90
33594;DHT22;19920;52.242;20.940;2022-12-07T01:31:25;2.90;99.90
33594;DHT22;19920;52.242;20.940;2022-12-07T01:33:53;2.90;99.90
33594;DHT22;19920;52.242;20.940;2022-12-07T01:36:22;2.90;99.90
33594;DHT22;19920;52.242;20.940;2022-12-07T01:38:50;3.10;99.90
33594;DHT22;19920;52.242;20.940;2022-12-07T01:41:20;3.20;99.90
33594;DHT22;19920;52.242;20.940;2022-12-07T01:46:37;3.20;99.90
33594;DHT22;19920;52.242;20.940;2022-12-07T01:49:08;3.20;99.90
33594;DHT22;19920;52.242;20.940;2022-12-07T01:51:37;3.20;99.90
33594;DHT22;19920;52.242;20.940;2022-12-07T01:54:04;3.30;99.90
33594;DHT22;19920;52.242;20.940;2022-12-07T01:56:31;3.30;99.90
33594;DHT22;19920;52.242;20.940;2022-12-07T01:58:58;3.20;99.90
33594;DHT22;19920;52.242;20.940;2022-12-07T02:01:25;3.20;99.90
33594;DHT22;19920;52.242;20.940;2022-12-07T02:03:51;3.30;99.90
33594;DHT22;19920;52.242;20.940;2022-12-07T02:06:22;3.40;99.90
33594;DHT22;19920;52.242;20.940;2022-12-07T02:08:49;3.30;99.90
33594;DHT22;19920;52.242;20.940;2022-12-07T02:11:15;3.30;99.90
33594;DHT22;19920;52.242;20.940;2022-12-07T02:13:42;3.20;99.90
33594;DHT22;19920;52.242;20.940;2022-12-07T02:16:22;3.20;99.90
33594;DHT22;19920;52.242;20.940;2022-12-07T02:30:10;3.30;99.90
33594;DHT22;19920;52.242;20.940;2022-12-07T02:32:42;3.40;99.90
33594;DHT22;19920;52.242;20.940;2022-12-07T02:35:20;3.30;99.90
33594;DHT22;19920;52.242;20.940;2022-12-07T02:43:30;3.30;99.90
33594;DHT22;19920;52.242;20.940;2022-12-07T02:46:00;3.20;99.90
33594;DHT22;19920;52.242;20.940;2022-12-07T02:48:27;3.20;99.90
33594;DHT22;19920;52.242;20.940;2022-12-07T02:50:54;3.20;99.90
33594;DHT22;19920;52.242;20.940;2022-12-07T02:53:30;3.20;99.90
33594;DHT22;19920;52.242;20.940;2022-12-07T02:55:56;3.10;99.90
33594;DHT22;19920;52.242;20.940;2022-12-07T02:58:38;3.10;99.90
33594;DHT22;19920;52.242;20.940;2022-12-07T03:03:35;3.20;99.90
33594;DHT22;19920;52.242;20.940;2022-12-07T03:06:07;3.20;99.90
33594;DHT22;19920;52.242;20.940;2022-12-07T03:11:45;3.20;99.90
33594;DHT22;19920;52.242;20.940;2022-12-07T03:14:30;3.20;99.90
33594;DHT22;19920;52.242;20.940;2022-12-07T03:19:56;3.00;99.90
33594;DHT22;19920;52.242;20.940;2022-12-07T03:22:23;3.00;99.90
33594;DHT22;19920;52.242;20.940;2022-12-07T03:25:04;3.00;99.90
33594;DHT22;19920;52.242;20.940;2022-12-07T03:27:57;3.10;99.90
33594;DHT22;19920;52.242;20.940;2022-12-07T03:30:43;3.10;99.90
33594;DHT22;19920;52.242;20.940;2022-12-07T03:33:18;3.10;99.90
33594;DHT22;19920;52.242;20.940;2022-12-07T03:36:00;3.10;99.90
33594;DHT22;19920;52.242;20.940;2022-12-07T03:38:44;3.20;99.90
33594;DHT22;19920;52.242;20.940;2022-12-07T03:41:22;3.20;99.90
33594;DHT22;19920;52.242;20.940;2022-12-07T03:43:49;3.20;99.90
33594;DHT22;19920;52.242;20.940;2022-12-07T03:46:27;3.30;99.90
33594;DHT22;19920;52.242;20.940;2022-12-07T03:54:19;3.10;99.90
33594;DHT22;19920;52.242;20.940;2022-12-07T03:56:47;3.10;99.90
33594;DHT22;19920;52.242;20.940;2022-12-07T03:59:14;3.20;99.90
33594;DHT22;19920;52.242;20.940;2022-12-07T04:01:45;3.10;99.90
33594;DHT22;19920;52.242;20.940;2022-12-07T04:04:17;3.20;99.90
33594;DHT22;19920;52.242;20.940;2022-12-07T04:06:42;3.10;99.90
33594;DHT22;19920;52.242;20.940;2022-12-07T04:09:08;3.10;99.90
33594;DHT22;19920;52.242;20.940;2022-12-07T04:11:34;3.00;99.90
33594;DHT22;19920;52.242;20.940;2022-12-07T04:13:59;3.00;99.90
33594;DHT22;19920;52.242;20.940;2022-12-07T04:16:50;3.00;99.90
33594;DHT22;19920;52.242;20.940;2022-12-07T04:19:18;3.00;99.90
33594;DHT22;19920;52.242;20.940;2022-12-07T04:21:44;3.00;99.90
33594;DHT22;19920;52.242;20.940;2022-12-07T04:24:10;3.00;99.90
33594;DHT22;19920;52.242;20.940;2022-12-07T04:26:36;2.90;99.90
33594;DHT22;19920;52.242;20.940;2022-12-07T04:29:02;2.90;99.90
33594;DHT22;19920;52.242;20.940;2022-12-07T04:31:28;2.90;99.90
33594;DHT22;19920;52.242;20.940;2022-12-07T04:33:53;3.00;99.90
33594;DHT22;19920;52.242;20.940;2022-12-07T04:36:19;3.00;99.90
33594;DHT22;19920;52.242;20.940;2022-12-07T04:38:46;3.00;99.90
33594;DHT22;19920;52.242;20.940;2022-12-07T04:41:12;3.00;99.90
33594;DHT22;19920;52.242;20.940;2022-12-07T04:43:38;3.00;99.90
33594;DHT22;19920;52.242;20.940;2022-12-07T04:46:04;2.90;99.90
33594;DHT22;19920;52.242;20.940;2022-12-07T04:48:30;3.00;99.90
33594;DHT22;19920;52.242;20.940;2022-12-07T04:50:56;2.90;99.90
33594;DHT22;19920;52.242;20.940;2022-12-07T04:53:22;2.80;99.90
33594;DHT22;19920;52.242;20.940;2022-12-07T04:55:48;2.80;99.90
33594;DHT22;19920;52.242;20.940;2022-12-07T04:58:14;2.90;99.90
33594;DHT22;19920;52.242;20.940;2022-12-07T05:00:40;2.90;99.90
33594;DHT22;19920;52.242;20.940;2022-12-07T05:03:05;2.80;99.90
33594;DHT22;19920;52.242;20.940;2022-12-07T05:05:31;2.80;99.90
33594;DHT22;19920;52.242;20.940;2022-12-07T05:07:57;2.80;99.90
33594;DHT22;19920;52.242;20.940;2022-12-07T05:10:22;2.70;99.90
33594;DHT22;19920;52.242;20.940;2022-12-07T05:12:48;2.80;99.90
33594;DHT22;19920;52.242;20.940;2022-12-07T05:15:14;2.80;99.90
33594;DHT22;19920;52.242;20.940;2022-12-07T05:17:40;2.80;99.90
33594;DHT22;19920;52.242;20.940;2022-12-07T05:20:06;2.70;99.90
33594;DHT22;19920;52.242;20.940;2022-12-07T05:22:32;2.70;99.90
33594;DHT22;19920;52.242;20.940;2022-12-07T05:24:58;2.80;99.90
33594;DHT22;19920;52.242;20.940;2022-12-07T05:27:23;2.80;99.90
33594;DHT22;19920;52.242;20.940;2022-12-07T05:29:50;2.90;99.90
33594;DHT22;19920;52.242;20.940;2022-12-07T05:32:16;2.90;99.90
33594;DHT22;19920;52.242;20.940;2022-12-07T05:34:41;2.80;99.90
33594;DHT22;19920;52.242;20.940;2022-12-07T05:37:07;2.80;99.90
33594;DHT22;19920;52.242;20.940;2022-12-07T05:39:33;2.70;99.90
33594;DHT22;19920;52.242;20.940;2022-12-07T05:41:58;2.60;99.90
33594;DHT22;19920;52.242;20.940;2022-12-07T05:44:40;2.60;99.90
33594;DHT22;19920;52.242;20.940;2022-12-07T05:47:06;2.70;99.90
33594;DHT22;19920;52.242;20.940;2022-12-07T05:49:32;2.60;99.90
33594;DHT22;19920;52.242;20.940;2022-12-07T05:51:58;2.60;99.90
33594;DHT22;19920;52.242;20.940;2022-12-07T05:54:24;2.70;99.90
33594;DHT22;19920;52.242;20.940;2022-12-07T05:56:50;2.60;99.90
33594;DHT22;19920;52.242;20.940;2022-12-07T05:59:16;2.60;99.90
33594;DHT22;19920;52.242;20.940;2022-12-07T06:01:52;2.60;99.90
33594;DHT22;19920;52.242;20.940;2022-12-07T06:04:18;2.60;99.90
33594;DHT22;19920;52.242;20.940;2022-12-07T06:06:44;2.50;99.90
33594;DHT22;19920;52.242;20.940;2022-12-07T06:09:10;2.50;99.90
33594;DHT22;19920;52.242;20.940;2022-12-07T06:11:38;2.60;99.90
33594;DHT22;19920;52.242;20.940;2022-12-07T06:14:22;2.60;99.90
33594;DHT22;19920;52.242;20.940;2022-12-07T06:16:48;2.50;99.90
33594;DHT22;19920;52.242;20.940;2022-12-07T06:19:13;2.50;99.90
33594;DHT22;19920;52.242;20.940;2022-12-07T06:21:39;2.50;99.90
33594;DHT22;19920;52.242;20.940;2022-12-07T06:24:05;2.60;99.90
33594;DHT22;19920;52.242;20.940;2022-12-07T06:26:31;2.50;99.90
33594;DHT22;19920;52.242;20.940;2022-12-07T06:28:57;2.50;99.90
33594;DHT22;19920;52.242;20.940;2022-12-07T06:31:22;2.50;99.90
33594;DHT22;19920;52.242;20.940;2022-12-07T06:33:48;2.60;99.90
33594;DHT22;19920;52.242;20.940;2022-12-07T06:36:14;2.50;99.90
33594;DHT22;19920;52.242;20.940;2022-12-07T06:38:39;2.60;99.90
33594;DHT22;19920;52.242;20.940;2022-12-07T06:41:05;2.50;99.90
33594;DHT22;19920;52.242;20.940;2022-12-07T06:43:32;2.40;99.90
33594;DHT22;19920;52.242;20.940;2022-12-07T06:45:58;2.40;99.90
33594;DHT22;19920;52.242;20.940;2022-12-07T06:48:23;2.40;99.90
33594;DHT22;19920;52.242;20.940;2022-12-07T06:50:49;2.40;99.90
33594;DHT22;19920;52.242;20.940;2022-12-07T06:53:15;2.40;99.90
33594;DHT22;19920;52.242;20.940;2022-12-07T06:55:41;2.50;99.90
33594;DHT22;19920;52.242;20.940;2022-12-07T06:58:06;2.50;99.90
33594;DHT22;19920;52.242;20.940;2022-12-07T07:00:32;2.50;99.90
33594;DHT22;19920;52.242;20.940;2022-12-07T07:03:00;2.50;99.90
33594;DHT22;19920;52.242;20.940;2022-12-07T07:05:26;2.50;99.90
33594;DHT22;19920;52.242;20.940;2022-12-07T07:07:51;2.50;99.90
33594;DHT22;19920;52.242;20.940;2022-12-07T07:10:17;2.40;99.90
33594;DHT22;19920;52.242;20.940;2022-12-07T07:12:43;2.40;99.90
33594;DHT22;19920;52.242;20.940;2022-12-07T07:15:09;2.50;99.90
33594;DHT22;19920;52.242;20.940;2022-12-07T07:17:35;2.50;99.90
33594;DHT22;19920;52.242;20.940;2022-12-07T07:20:00;2.40;99.90
33594;DHT22;19920;52.242;20.940;2022-12-07T07:22:26;2.40;99.90
33594;DHT22;19920;52.242;20.940;2022-12-07T07:24:52;2.40;99.90
33594;DHT22;19920;52.242;20.940;2022-12-07T07:27:17;2.40;99.90
33594;DHT22;19920;52.242;20.940;2022-12-07T07:29:43;2.30;99.90
33594;DHT22;19920;52.242;20.940;2022-12-07T07:32:09;2.50;99.90
33594;DHT22;19920;52.242;20.940;2022-12-07T07:34:34;2.50;99.90
33594;DHT22;19920;52.242;20.940;2022-12-07T07:37:00;2.60;99.90
33594;DHT22;19920;52.242;20.940;2022-12-07T07:39:26;2.50;99.90
33594;DHT22;19920;52.242;20.940;2022-12-07T07:41:51;2.50;99.90
33594;DHT22;19920;52.242;20.940;2022-12-07T07:44:17;2.60;99.90
33594;DHT22;19920;52.242;20.940;2022-12-07T07:46:43;2.40;99.90
33594;DHT22;19920;52.242;20.940;2022-12-07T07:49:09;2.50;99.90
33594;DHT22;19920;52.242;20.940;2022-12-07T07:51:36;2.50;99.90
33594;DHT22;19920;52.242;20.940;2022-12-07T07:54:03;2.50;99.90
33594;DHT22;19920;52.242;20.940;2022-12-07T07:56:29;2.60;99.90
33594;DHT22;19920;52.242;20.940;2022-12-07T07:58:54;2.50;99.90
33594;DHT22;19920;52.242;20.940;2022-12-07T08:01:20;2.40;99.90
33594;DHT22;19920;52.242;20.940;2022-12-07T08:03:46;2.50;99.90
33594;DHT22;19920;52.242;20.940;2022-12-07T08:06:12;2.50;99.90
33594;DHT22;19920;52.242;20.940;2022-12-07T08:08:38;2.60;99.90
33594;DHT22;19920;52.242;20.940;2022-12-07T08:11:07;2.60;99.90
33594;DHT22;19920;52.242;20.940;2022-12-07T08:13:33;2.60;99.90
33594;DHT22;19920;52.242;20.940;2022-12-07T08:16:03;2.60;99.90
33594;DHT22;19920;52.242;20.940;2022-12-07T08:18:29;2.60;99.90
33594;DHT22;19920;52.242;20.940;2022-12-07T08:21:02;2.60;99.90
33594;DHT22;19920;52.242;20.940;2022-12-07T08:23:29;2.60;99.90
33594;DHT22;19920;52.242;20.940;2022-12-07T08:25:55;2.60;99.90
33594;DHT22;19920;52.242;20.940;2022-12-07T08:28:20;2.60;99.90
33594;DHT22;19920;52.242;20.940;2022-12-07T08:30:46;2.50;99.90
33594;DHT22;19920;52.242;20.940;2022-12-07T08:33:12;2.60;99.90
33594;DHT22;19920;52.242;20.940;2022-12-07T08:35:38;2.70;99.90
33594;DHT22;19920;52.242;20.940;2022-12-07T08:38:03;2.80;99.90
33594;DHT22;19920;52.242;20.940;2022-12-07T08:40:30;2.80;99.90
33594;DHT22;19920;52.242;20.940;2022-12-07T08:42:55;2.80;99.90
33594;DHT22;19920;52.242;20.940;2022-12-07T08:45:22;2.80;99.90
33594;DHT22;19920;52.242;20.940;2022-12-07T08:47:54;2.90;99.90
33594;DHT22;19920;52.242;20.940;2022-12-07T08:50:21;2.90;99.90
33594;DHT22;19920;52.242;20.940;2022-12-07T08:52:56;3.00;99.90
33594;DHT22;19920;52.242;20.940;2022-12-07T08:55:22;3.00;99.90
33594;DHT22;19920;52.242;20.940;2022-12-07T08:57:48;3.00;99.90
33594;DHT22;19920;52.242;20.940;2022-12-07T09:00:15;3.00;99.90
33594;DHT22;19920;52.242;20.940;2022-12-07T09:02:46;3.10;99.90
33594;DHT22;19920;52.242;20.940;2022-12-07T09:05:12;3.20;99.90
33594;DHT22;19920;52.242;20.940;2022-12-07T09:07:41;3.20;99.90
33594;DHT22;19920;52.242;20.940;2022-12-07T09:10:07;3.20;99.90
33594;DHT22;19920;52.242;20.940;2022-12-07T09:12:33;3.20;99.90
33594;DHT22;19920;52.242;20.940;2022-12-07T09:14:59;3.30;99.90
33594;DHT22;19920;52.242;20.940;2022-12-07T09:17:26;3.40;99.90
33594;DHT22;19920;52.242;20.940;2022-12-07T09:19:52;3.40;99.90
33594;DHT22;19920;52.242;20.940;2022-12-07T09:22:18;3.50;99.90
33594;DHT22;19920;52.242;20.940;2022-12-07T09:24:43;3.50;99.90
33594;DHT22;19920;52.242;20.940;2022-12-07T09:27:11;3.50;99.90
33594;DHT22;19920;52.242;20.940;2022-12-07T09:29:37;3.60;99.90
33594;DHT22;19920;52.242;20.940;2022-12-07T09:32:02;3.70;99.90
33594;DHT22;19920;52.242;20.940;2022-12-07T09:34:31;3.80;99.90
33594;DHT22;19920;52.242;20.940;2022-12-07T09:36:57;3.80;99.90
33594;DHT22;19920;52.242;20.940;2022-12-07T09:39:23;3.80;99.90
33594;DHT22;19920;52.242;20.940;2022-12-07T09:41:49;3.90;99.90
33594;DHT22;19920;52.242;20.940;2022-12-07T09:44:23;3.90;99.90
33594;DHT22;19920;52.242;20.940;2022-12-07T09:46:49;3.90;99.90
33594;DHT22;19920;52.242;20.940;2022-12-07T09:49:28;3.90;99.90
33594;DHT22;19920;52.242;20.940;2022-12-07T09:54:36;3.80;99.90
33594;DHT22;19920;52.242;20.940;2022-12-07T09:57:05;3.60;99.90
33594;DHT22;19920;52.242;20.940;2022-12-07T09:59:31;3.50;99.90
33594;DHT22;19920;52.242;20.940;2022-12-07T10:02:32;3.40;99.90
33594;DHT22;19920;52.242;20.940;2022-12-07T10:04:59;3.50;99.90
33594;DHT22;19920;52.242;20.940;2022-12-07T10:07:25;3.70;99.90
33594;DHT22;19920;52.242;20.940;2022-12-07T10:09:50;3.70;99.90
33594;DHT22;19920;52.242;20.940;2022-12-07T10:12:16;3.70;99.90
33594;DHT22;19920;52.242;20.940;2022-12-07T10:15:01;3.80;99.90
33594;DHT22;19920;52.242;20.940;2022-12-07T10:17:37;3.80;99.90
33594;DHT22;19920;52.242;20.940;2022-12-07T10:22:37;4.00;99.90
33594;DHT22;19920;52.242;20.940;2022-12-07T10:25:18;4.00;99.90
33594;DHT22;19920;52.242;20.940;2022-12-07T10:27:44;3.90;99.90
33594;DHT22;19920;52.242;20.940;2022-12-07T10:30:22;4.00;99.90
33594;DHT22;19920;52.242;20.940;2022-12-07T10:32:47;3.90;99.90
33594;DHT22;19920;52.242;20.940;2022-12-07T10:37:45;3.80;99.90
33594;DHT22;19920;52.242;20.940;2022-12-07T10:40:33;3.90;99.90
33594;DHT22;19920;52.242;20.940;2022-12-07T10:46:45;4.00;99.90
33594;DHT22;19920;52.242;20.940;2022-12-07T10:59:56;4.20;99.90
33594;DHT22;19920;52.242;20.940;2022-12-07T11:02:48;4.30;99.90
33594;DHT22;19920;52.242;20.940;2022-12-07T11:11:18;4.20;99.90
33594;DHT22;19920;52.242;20.940;2022-12-07T11:13:53;4.20;99.90
33594;DHT22;19920;52.242;20.940;2022-12-07T11:19:32;4.10;99.90
33594;DHT22;19920;52.242;20.940;2022-12-07T11:22:05;4.10;99.90
33594;DHT22;19920;52.242;20.940;2022-12-07T11:24:34;4.20;99.90
33594;DHT22;19920;52.242;20.940;2022-12-07T11:27:40;4.20;99.90
33594;DHT22;19920;52.242;20.940;2022-12-07T11:30:19;4.20;99.90
33594;DHT22;19920;52.242;20.940;2022-12-07T11:35:40;4.10;99.90
33594;DHT22;19920;52.242;20.940;2022-12-07T11:38:15;4.00;99.90
33594;DHT22;19920;52.242;20.940;2022-12-07T11:40:45;4.10;99.90
33594;DHT22;19920;52.242;20.940;2022-12-07T11:43:18;4.20;99.90
33594;DHT22;19920;52.242;20.940;2022-12-07T11:45:51;4.20;99.90
33594;DHT22;19920;52.242;20.940;2022-12-07T11:48:24;4.40;99.90
33594;DHT22;19920;52.242;20.940;2022-12-07T11:50:57;4.20;99.90
33594;DHT22;19920;52.242;20.940;2022-12-07T11:53:40;4.30;99.90
33594;DHT22;19920;52.242;20.940;2022-12-07T12:06:30;4.50;99.90
33594;DHT22;19920;52.242;20.940;2022-12-07T12:09:02;4.60;99.90
33594;DHT22;19920;52.242;20.940;2022-12-07T12:19:35;4.10;99.90
33594;DHT22;19920;52.242;20.940;2022-12-07T12:24:37;3.90;99.90
33594;DHT22;19920;52.242;20.940;2022-12-07T12:27:18;3.80;99.90
33594;DHT22;19920;52.242;20.940;2022-12-07T12:29:57;3.90;99.90
33594;DHT22;19920;52.242;20.940;2022-12-07T12:32:38;3.90;99.90
33594;DHT22;19920;52.242;20.940;2022-12-07T12:35:28;3.90;99.90
33594;DHT22;19920;52.242;20.940;2022-12-07T12:37:54;4.00;99.90
33594;DHT22;19920;52.242;20.940;2022-12-07T12:42:56;4.10;99.90
33594;DHT22;19920;52.242;20.940;2022-12-07T12:45:28;4.00;99.90
33594;DHT22;19920;52.242;20.940;2022-12-07T12:47:59;4.00;99.90
33594;DHT22;19920;52.242;20.940;2022-12-07T12:50:27;4.10;99.90
33594;DHT22;19920;52.242;20.940;2022-12-07T12:53:01;4.20;99.90
33594;DHT22;19920;52.242;20.940;2022-12-07T13:00:43;4.00;99.90
33594;DHT22;19920;52.242;20.940;2022-12-07T13:03:28;4.10;99.90
33594;DHT22;19920;52.242;20.940;2022-12-07T13:06:18;4.10;99.90
33594;DHT22;19920;52.242;20.940;2022-12-07T13:08:44;4.10;99.90
33594;DHT22;19920;52.242;20.940;2022-12-07T13:11:28;4.00;99.90
33594;DHT22;19920;52.242;20.940;2022-12-07T13:16:59;3.90;99.90
33594;DHT22;19920;52.242;20.940;2022-12-07T13:24:58;3.90;99.90
33594;DHT22;19920;52.242;20.940;2022-12-07T13:27:25;3.80;99.90
33594;DHT22;19920;52.242;20.940;2022-12-07T13:29:52;3.90;99.90
33594;DHT22;19920;52.242;20.940;2022-12-07T13:32:27;3.80;99.90
33594;DHT22;19920;52.242;20.940;2022-12-07T13:34:53;3.80;99.90
33594;DHT22;19920;52.242;20.940;2022-12-07T13:37:28;3.80;99.90
33594;DHT22;19920;52.242;20.940;2022-12-07T13:40:01;3.80;99.90
33594;DHT22;19920;52.242;20.940;2022-12-07T13:42:37;3.70;99.90
33594;DHT22;19920;52.242;20.940;2022-12-07T13:50:56;3.70;99.90
33594;DHT22;19920;52.242;20.940;2022-12-07T13:53:23;3.70;99.90
33594;DHT22;19920;52.242;20.940;2022-12-07T13:55:49;3.70;99.90
33594;DHT22;19920;52.242;20.940;2022-12-07T13:58:15;3.70;99.90
33594;DHT22;19920;52.242;20.940;2022-12-07T14:00:41;3.70;99.90
33594;DHT22;19920;52.242;20.940;2022-12-07T14:05:43;3.60;99.90
33594;DHT22;19920;52.242;20.940;2022-12-07T14:13:34;3.50;99.90
33594;DHT22;19920;52.242;20.940;2022-12-07T14:16:54;3.50;99.90
33594;DHT22;19920;52.242;20.940;2022-12-07T14:18:53;3.50;99.90
33594;DHT22;19920;52.242;20.940;2022-12-07T14:21:22;3.40;99.90
33594;DHT22;19920;52.242;20.940;2022-12-07T14:24:17;3.30;99.90
33594;DHT22;19920;52.242;20.940;2022-12-07T14:26:45;3.30;99.90
33594;DHT22;19920;52.242;20.940;2022-12-07T14:31:52;3.40;99.90
33594;DHT22;19920;52.242;20.940;2022-12-07T14:34:20;3.30;99.90
33594;DHT22;19920;52.242;20.940;2022-12-07T14:36:46;3.30;99.90
33594;DHT22;19920;52.242;20.940;2022-12-07T14:39:12;3.20;99.90
33594;DHT22;19920;52.242;20.940;2022-12-07T14:41:38;3.20;99.90
33594;DHT22;19920;52.242;20.940;2022-12-07T14:44:16;3.10;99.90
33594;DHT22;19920;52.242;20.940;2022-12-07T14:46:42;2.90;99.90
33594;DHT22;19920;52.242;20.940;2022-12-07T14:49:08;2.90;99.90
33594;DHT22;19920;52.242;20.940;2022-12-07T14:51:36;2.90;99.90
33594;DHT22;19920;52.242;20.940;2022-12-07T14:54:04;2.90;99.90
33594;DHT22;19920;52.242;20.940;2022-12-07T14:56:30;3.00;99.90
33594;DHT22;19920;52.242;20.940;2022-12-07T14:58:56;2.90;99.90
33594;DHT22;19920;52.242;20.940;2022-12-07T15:01:21;2.90;99.90
33594;DHT22;19920;52.242;20.940;2022-12-07T15:03:47;2.80;99.90
33594;DHT22;19920;52.242;20.940;2022-12-07T15:06:14;2.90;99.90
33594;DHT22;19920;52.242;20.940;2022-12-07T15:08:40;2.80;99.90
33594;DHT22;19920;52.242;20.940;2022-12-07T15:11:08;2.70;99.90
33594;DHT22;19920;52.242;20.940;2022-12-07T15:13:34;2.90;99.90
33594;DHT22;19920;52.242;20.940;2022-12-07T15:16:20;2.90;99.90
33594;DHT22;19920;52.242;20.940;2022-12-07T15:18:46;2.90;99.90
33594;DHT22;19920;52.242;20.940;2022-12-07T15:21:15;2.90;99.90
33594;DHT22;19920;52.242;20.940;2022-12-07T15:23:42;3.00;99.90
33594;DHT22;19920;52.242;20.940;2022-12-07T15:26:09;3.00;99.90
33594;DHT22;19920;52.242;20.940;2022-12-07T15:28:35;3.10;99.90
33594;DHT22;19920;52.242;20.940;2022-12-07T15:31:01;3.10;99.90
33594;DHT22;19920;52.242;20.940;2022-12-07T15:33:26;3.10;99.90
33594;DHT22;19920;52.242;20.940;2022-12-07T15:35:52;3.10;99.90
33594;DHT22;19920;52.242;20.940;2022-12-07T15:38:18;3.20;99.90
33594;DHT22;19920;52.242;20.940;2022-12-07T15:40:46;3.10;99.90
33594;DHT22;19920;52.242;20.940;2022-12-07T15:43:12;3.00;99.90
33594;DHT22;19920;52.242;20.940;2022-12-07T15:45:56;3.00;99.90
33594;DHT22;19920;52.242;20.940;2022-12-07T15:48:22;3.00;99.90
33594;DHT22;19920;52.242;20.940;2022-12-07T15:50:48;3.00;99.90
33594;DHT22;19920;52.242;20.940;2022-12-07T15:53:13;3.00;99.90
33594;DHT22;19920;52.242;20.940;2022-12-07T15:55:39;3.00;99.90
33594;DHT22;19920;52.242;20.940;2022-12-07T15:58:06;3.00;99.90
33594;DHT22;19920;52.242;20.940;2022-12-07T16:00:32;3.10;99.90
33594;DHT22;19920;52.242;20.940;2022-12-07T16:02:58;3.00;99.90
33594;DHT22;19920;52.242;20.940;2022-12-07T16:05:23;3.10;99.90
33594;DHT22;19920;52.242;20.940;2022-12-07T16:07:49;3.10;99.90
33594;DHT22;19920;52.242;20.940;2022-12-07T16:10:15;3.10;99.90
33594;DHT22;19920;52.242;20.940;2022-12-07T16:12:40;3.10;99.90
33594;DHT22;19920;52.242;20.940;2022-12-07T16:15:06;3.10;99.90
33594;DHT22;19920;52.242;20.940;2022-12-07T16:17:32;3.20;99.90
33594;DHT22;19920;52.242;20.940;2022-12-07T16:19:58;3.20;99.90
33594;DHT22;19920;52.242;20.940;2022-12-07T16:22:24;3.20;99.90
33594;DHT22;19920;52.242;20.940;2022-12-07T16:24:49;3.20;99.90
33594;DHT22;19920;52.242;20.940;2022-12-07T16:27:15;3.20;99.90
33594;DHT22;19920;52.242;20.940;2022-12-07T16:29:41;3.10;99.90
33594;DHT22;19920;52.242;20.940;2022-12-07T16:32:07;3.20;99.90
33594;DHT22;19920;52.242;20.940;2022-12-07T16:34:33;3.10;99.90
33594;DHT22;19920;52.242;20.940;2022-12-07T16:36:58;3.30;99.90
33594;DHT22;19920;52.242;20.940;2022-12-07T16:39:24;3.30;99.90
33594;DHT22;19920;52.242;20.940;2022-12-07T16:41:50;3.30;99.90
33594;DHT22;19920;52.242;20.940;2022-12-07T16:44:15;3.30;99.90
33594;DHT22;19920;52.242;20.940;2022-12-07T16:46:42;3.30;99.90
33594;DHT22;19920;52.242;20.940;2022-12-07T16:49:15;3.30;99.90
33594;DHT22;19920;52.242;20.940;2022-12-07T16:51:41;3.40;99.90
33594;DHT22;19920;52.242;20.940;2022-12-07T16:54:11;3.30;99.90
33594;DHT22;19920;52.242;20.940;2022-12-07T16:56:37;3.30;99.90
33594;DHT22;19920;52.242;20.940;2022-12-07T16:59:03;3.30;99.90
33594;DHT22;19920;52.242;20.940;2022-12-07T17:01:29;3.20;99.90
33594;DHT22;19920;52.242;20.940;2022-12-07T17:03:57;3.20;99.90
33594;DHT22;19920;52.242;20.940;2022-12-07T17:06:25;3.30;99.90
33594;DHT22;19920;52.242;20.940;2022-12-07T17:08:51;3.40;99.90
33594;DHT22;19920;52.242;20.940;2022-12-07T17:11:28;3.40;99.90
33594;DHT22;19920;52.242;20.940;2022-12-07T17:13:56;3.40;99.90
33594;DHT22;19920;52.242;20.940;2022-12-07T17:16:41;3.50;99.90
33594;DHT22;19920;52.242;20.940;2022-12-07T17:19:08;3.50;99.90
33594;DHT22;19920;52.242;20.940;2022-12-07T17:21:35;3.50;99.90
33594;DHT22;19920;52.242;20.940;2022-12-07T17:24:02;3.40;99.90
33594;DHT22;19920;52.242;20.940;2022-12-07T17:26:29;3.40;99.90
33594;DHT22;19920;52.242;20.940;2022-12-07T17:28:55;3.30;99.90
33594;DHT22;19920;52.242;20.940;2022-12-07T17:31:22;3.30;99.90
33594;DHT22;19920;52.242;20.940;2022-12-07T17:33:48;3.30;99.90
33594;DHT22;19920;52.242;20.940;2022-12-07T17:38:43;3.40;99.90
33594;DHT22;19920;52.242;20.940;2022-12-07T17:41:13;3.40;99.90
33594;DHT22;19920;52.242;20.940;2022-12-07T17:44:00;3.40;99.90